createdAt,value
2017-10-16T00:00:40.641Z,3.60
2017-10-16T00:04:44.859Z,2.60
2017-10-16T00:08:48.359Z,2.43
2017-10-16T00:12:51.811Z,2.80
2017-10-16T00:16:55.297Z,2.40
2017-10-16T00:20:59.516Z,3.10
2017-10-16T00:25:03.781Z,2.47
2017-10-16T00:29:07.270Z,2.30
2017-10-16T00:33:10.743Z,2.80
2017-10-16T00:37:14.199Z,2.40
2017-10-16T00:41:17.678Z,3.07
2017-10-16T00:45:21.898Z,2.60
2017-10-16T00:49:26.138Z,4.20
2017-10-16T00:53:29.593Z,2.30
2017-10-16T00:57:33.088Z,2.40
2017-10-16T01:01:36.546Z,2.43
2017-10-16T01:05:40.843Z,3.10
2017-10-16T01:09:44.291Z,2.33
2017-10-16T01:13:48.548Z,2.50
2017-10-16T01:17:52.001Z,1.80
2017-10-16T01:21:55.483Z,2.10
2017-10-16T01:25:58.926Z,2.30
2017-10-16T01:30:03.181Z,2.43
2017-10-16T01:34:06.634Z,2.50
2017-10-16T01:38:10.120Z,2.30
2017-10-16T01:42:13.605Z,2.60
2017-10-16T01:46:17.086Z,2.10
2017-10-16T01:50:21.306Z,2.50
2017-10-16T01:54:25.546Z,2.87
2017-10-16T01:58:28.983Z,2.43
2017-10-16T02:02:32.458Z,2.57
2017-10-16T02:06:35.916Z,2.20
2017-10-16T02:10:39.404Z,2.03
2017-10-16T02:14:42.890Z,2.50
2017-10-16T02:18:46.374Z,1.80
2017-10-16T02:22:50.607Z,2.40
2017-10-16T02:26:54.117Z,2.37
2017-10-16T02:30:57.586Z,2.40
2017-10-16T02:35:01.070Z,4.80
2017-10-16T02:39:04.514Z,2.53
2017-10-16T02:43:07.992Z,2.20
2017-10-16T02:47:11.458Z,2.70
2017-10-16T02:51:14.927Z,2.40
2017-10-16T02:55:18.378Z,2.40
2017-10-16T02:59:21.866Z,2.47
2017-10-16T03:03:26.086Z,2.23
2017-10-16T03:07:30.335Z,1.80
2017-10-16T03:11:33.774Z,2.33
2017-10-16T03:15:37.267Z,2.20
2017-10-16T03:19:40.728Z,2.30
2017-10-16T03:23:44.206Z,3.20
2017-10-16T03:27:47.659Z,2.20
2017-10-16T03:31:51.898Z,1.93
2017-10-16T03:35:55.364Z,2.30
2017-10-16T03:39:58.845Z,2.87
2017-10-16T03:44:02.304Z,2.57
2017-10-16T03:48:06.597Z,3.17
2017-10-16T03:52:10.046Z,2.27
2017-10-16T03:56:13.530Z,1.80
2017-10-16T04:00:16.986Z,2.10
2017-10-16T04:04:20.470Z,4.27
2017-10-16T04:08:23.918Z,2.10
2017-10-16T04:12:27.407Z,2.33
2017-10-16T04:16:30.854Z,2.47
2017-10-16T04:20:34.339Z,3.20
2017-10-16T04:24:37.794Z,2.40
2017-10-16T04:28:42.044Z,2.80
2017-10-16T04:32:45.490Z,2.37
2017-10-16T04:36:48.990Z,2.37
2017-10-16T04:40:52.452Z,2.90
2017-10-16T04:44:55.938Z,2.70
2017-10-16T04:49:00.153Z,2.70
2017-10-16T04:53:03.645Z,3.07
2017-10-16T04:57:07.100Z,3.60
2017-10-16T05:01:10.575Z,5.03
2017-10-16T05:05:14.803Z,2.13
2017-10-16T05:09:18.332Z,2.80
2017-10-16T05:13:22.546Z,2.30
2017-10-16T05:17:26.918Z,2.13
2017-10-16T05:21:30.371Z,2.50
2017-10-16T05:25:33.861Z,2.80
2017-10-16T05:29:37.326Z,2.60
2017-10-16T05:33:40.783Z,2.50
2017-10-16T05:37:44.226Z,2.77
2017-10-16T05:41:48.475Z,2.20
2017-10-16T05:45:51.924Z,2.63
2017-10-16T05:49:55.450Z,2.70
2017-10-16T05:53:59.675Z,2.30
2017-10-16T05:58:03.925Z,3.10
2017-10-16T06:02:07.374Z,2.70
2017-10-16T06:06:10.866Z,2.60
2017-10-16T06:10:14.320Z,2.73
2017-10-16T06:14:18.679Z,2.60
2017-10-16T06:18:22.131Z,2.30
2017-10-16T06:22:25.622Z,2.50
2017-10-16T06:26:29.066Z,2.47
2017-10-16T06:30:32.558Z,2.20
2017-10-16T06:34:36.011Z,2.13
2017-10-16T06:38:39.499Z,2.17
2017-10-16T06:42:43.732Z,2.63
2017-10-16T06:46:47.993Z,3.17
2017-10-16T06:50:51.452Z,2.30
2017-10-16T06:54:55.708Z,2.60
2017-10-16T06:58:59.159Z,2.33
2017-10-16T07:03:02.652Z,2.57
2017-10-16T07:07:06.111Z,1.90
2017-10-16T07:11:10.354Z,4.10
2017-10-16T07:15:13.812Z,2.37
2017-10-16T07:19:17.483Z,3.00
2017-10-16T07:23:20.944Z,2.80
2017-10-16T07:27:24.426Z,2.23
2017-10-16T07:31:27.895Z,2.40
2017-10-16T07:35:31.370Z,5.97
2017-10-16T07:39:35.583Z,2.97
2017-10-16T07:43:39.062Z,4.30
2017-10-16T07:47:42.514Z,2.30
2017-10-16T07:51:46.760Z,2.70
2017-10-16T07:55:50.229Z,2.60
2017-10-16T07:59:53.726Z,2.40
2017-10-16T08:03:57.177Z,3.40
2017-10-16T08:08:00.651Z,3.97
2017-10-16T08:12:04.144Z,2.20
2017-10-16T08:16:07.629Z,2.40
2017-10-16T08:20:11.137Z,2.60
2017-10-16T08:24:14.744Z,2.50
2017-10-16T08:28:18.231Z,2.63
2017-10-16T08:32:21.708Z,2.40
2017-10-16T08:36:25.163Z,3.03
2017-10-16T08:40:28.647Z,3.43
2017-10-16T08:44:32.096Z,3.43
2017-10-16T08:48:35.619Z,3.50
2017-10-16T08:52:39.063Z,3.60
2017-10-16T08:56:43.328Z,2.40
2017-10-16T09:00:46.781Z,2.80
2017-10-16T09:04:51.026Z,2.13
2017-10-16T09:08:54.478Z,3.20
2017-10-16T09:12:57.963Z,2.67
2017-10-16T09:17:01.415Z,3.10
2017-10-16T09:21:05.669Z,2.67
2017-10-16T09:25:09.118Z,2.87
2017-10-16T09:29:12.598Z,2.50
2017-10-16T09:33:16.055Z,2.73
2017-10-16T09:37:19.558Z,2.50
2017-10-16T09:41:23.126Z,2.90
2017-10-16T09:45:26.620Z,2.90
2017-10-16T09:49:30.064Z,2.67
2017-10-16T09:53:33.552Z,3.10
2017-10-16T09:57:37.057Z,3.03
2017-10-16T10:01:40.542Z,2.63
2017-10-16T10:05:44.760Z,2.73
2017-10-16T10:09:48.998Z,2.50
2017-10-16T10:13:53.302Z,3.30
2017-10-16T10:17:57.558Z,2.90
2017-10-16T10:22:01.005Z,2.70
2017-10-16T10:26:04.487Z,3.20
2017-10-16T10:30:07.945Z,2.57
2017-10-16T10:34:11.436Z,3.73
2017-10-16T10:38:14.891Z,2.63
2017-10-16T10:42:18.387Z,3.40
2017-10-16T10:46:22.609Z,2.67
2017-10-16T10:50:26.846Z,2.73
2017-10-16T10:54:30.299Z,3.07
2017-10-16T10:58:33.782Z,2.53
2017-10-16T11:02:37.231Z,2.73
2017-10-16T11:06:40.719Z,2.67
2017-10-16T11:10:44.182Z,2.17
2017-10-16T11:14:47.654Z,2.63
2017-10-16T11:18:51.108Z,3.30
2017-10-16T11:22:54.590Z,2.83
2017-10-16T11:26:58.810Z,3.23
2017-10-16T11:31:03.064Z,2.83
2017-10-16T11:35:06.505Z,2.10
2017-10-16T11:39:09.986Z,2.57
2017-10-16T11:43:13.419Z,2.87
2017-10-16T11:47:16.906Z,2.80
2017-10-16T11:51:20.358Z,2.43
2017-10-16T11:55:23.831Z,2.17
2017-10-16T11:59:27.326Z,2.33
2017-10-16T12:03:30.791Z,2.30
2017-10-16T12:07:34.997Z,2.43
2017-10-16T12:11:38.466Z,2.90
2017-10-16T12:15:41.909Z,2.77
2017-10-16T12:19:45.387Z,2.30
2017-10-16T12:23:48.826Z,2.80
2017-10-16T12:27:52.287Z,2.80
2017-10-16T12:31:55.805Z,3.17
2017-10-16T12:35:59.291Z,2.33
2017-10-16T12:40:02.764Z,3.23
2017-10-16T12:44:06.248Z,2.17
2017-10-16T12:48:09.678Z,2.40
2017-10-16T12:52:13.163Z,2.00
2017-10-16T12:56:16.610Z,2.80
2017-10-16T13:00:20.934Z,2.97
2017-10-16T13:04:25.199Z,2.67
2017-10-16T13:08:28.671Z,2.23
2017-10-16T13:12:32.926Z,2.43
2017-10-16T13:16:36.435Z,2.30
2017-10-16T13:20:39.870Z,2.37
2017-10-16T13:24:43.365Z,2.90
2017-10-16T13:28:46.803Z,2.13
2017-10-16T13:32:50.284Z,1.87
2017-10-16T13:36:53.724Z,2.57
2017-10-16T13:40:57.199Z,2.20
2017-10-16T13:45:00.650Z,2.70
2017-10-16T13:49:04.887Z,2.20
2017-10-16T13:53:09.114Z,2.43
2017-10-16T13:57:13.362Z,1.97
2017-10-16T14:01:16.822Z,2.77
2017-10-16T14:05:20.457Z,2.00
2017-10-16T14:09:24.659Z,2.30
2017-10-16T14:13:28.133Z,3.30
2017-10-16T14:17:31.577Z,2.30
2017-10-16T14:21:35.809Z,2.20
2017-10-16T14:25:39.991Z,2.30
2017-10-16T14:29:43.472Z,2.37
2017-10-16T14:33:46.921Z,2.10
2017-10-16T14:37:50.394Z,4.63
2017-10-16T14:41:53.868Z,4.33
2017-10-16T14:45:58.124Z,4.27
2017-10-16T14:50:01.575Z,4.70
2017-10-16T14:54:05.840Z,4.53
2017-10-16T14:58:09.341Z,6.03
2017-10-16T15:02:12.807Z,5.60
2017-10-16T15:06:16.259Z,5.03
2017-10-16T15:10:19.744Z,7.00
2017-10-16T15:14:23.959Z,7.43
2017-10-16T15:18:27.428Z,5.83
2017-10-16T15:22:30.887Z,6.93
2017-10-16T15:26:35.265Z,7.27
2017-10-16T15:30:38.735Z,7.27
2017-10-16T15:34:42.967Z,6.57
2017-10-16T15:38:48.054Z,8.57
2017-10-16T15:42:51.527Z,6.40
2017-10-16T15:46:54.982Z,6.67
2017-10-16T15:50:58.440Z,7.10
2017-10-16T15:55:01.878Z,9.73
2017-10-16T15:59:05.372Z,7.37
2017-10-16T16:03:08.823Z,6.57
2017-10-16T16:07:12.295Z,9.30
2017-10-16T16:11:15.759Z,8.57
2017-10-16T16:15:19.236Z,7.77
2017-10-16T16:19:22.691Z,8.63
2017-10-16T16:23:26.251Z,9.70
2017-10-16T16:27:29.704Z,7.73
2017-10-16T16:31:33.200Z,8.00
2017-10-16T16:35:36.650Z,9.40
2017-10-16T16:39:40.112Z,11.63
2017-10-16T16:43:43.584Z,9.77
2017-10-16T16:47:47.042Z,11.73
2017-10-16T16:51:50.514Z,12.73
2017-10-16T16:55:54.016Z,12.87
2017-10-16T16:59:57.540Z,15.03
2017-10-16T17:04:01.798Z,12.47
2017-10-16T17:08:05.266Z,12.20
2017-10-16T17:12:09.514Z,13.70
2017-10-16T17:16:12.947Z,14.50
2017-10-16T17:20:16.434Z,12.83
2017-10-16T17:24:19.903Z,14.50
2017-10-16T17:28:23.399Z,14.40
2017-10-16T17:32:26.854Z,14.90
2017-10-16T17:36:30.361Z,12.53
2017-10-16T17:40:33.845Z,12.97
2017-10-16T17:44:38.140Z,11.23
2017-10-16T17:48:41.609Z,11.30
2017-10-16T17:52:45.107Z,15.47
2017-10-16T17:56:48.555Z,12.60
2017-10-16T18:00:52.078Z,13.63
2017-10-16T18:04:55.546Z,11.80
2017-10-16T18:08:59.048Z,14.90
2017-10-16T18:13:02.503Z,11.13
2017-10-16T18:17:05.990Z,11.07
2017-10-16T18:21:09.454Z,11.93
2017-10-16T18:25:13.700Z,15.20
2017-10-16T18:29:17.167Z,11.37
2017-10-16T18:33:20.655Z,11.20
2017-10-16T18:37:24.139Z,13.30
2017-10-16T18:41:27.638Z,11.43
2017-10-16T18:45:31.111Z,12.40
2017-10-16T18:49:35.383Z,12.50
2017-10-16T18:53:38.851Z,9.37
2017-10-16T18:57:43.099Z,15.43
2017-10-16T19:01:46.570Z,11.53
2017-10-16T19:05:50.835Z,11.13
2017-10-16T19:09:54.288Z,13.47
2017-10-16T19:13:57.773Z,9.70
2017-10-16T19:18:01.235Z,10.30
2017-10-16T19:22:04.710Z,9.27
2017-10-16T19:26:08.183Z,9.27
2017-10-16T19:30:12.526Z,8.67
2017-10-16T19:34:15.947Z,8.20
2017-10-16T19:38:19.597Z,8.07
2017-10-16T19:42:23.066Z,10.50
2017-10-16T19:46:26.509Z,7.90
2017-10-16T19:50:29.962Z,7.67
2017-10-16T19:54:33.439Z,8.40
2017-10-16T19:58:36.891Z,10.43
2017-10-16T20:02:41.145Z,7.80
2017-10-16T20:06:45.363Z,7.17
2017-10-16T20:10:49.628Z,7.97
2017-10-16T20:14:53.271Z,8.77
2017-10-16T20:18:56.757Z,8.10
2017-10-16T20:23:00.313Z,8.13
2017-10-16T20:27:04.562Z,8.73
2017-10-16T20:31:08.003Z,7.00
2017-10-16T20:35:11.496Z,8.27
2017-10-16T20:39:14.949Z,6.47
2017-10-16T20:43:18.427Z,9.20
2017-10-16T20:47:21.898Z,5.97
2017-10-16T20:51:25.408Z,6.93
2017-10-16T20:55:28.857Z,7.53
2017-10-16T20:59:32.338Z,6.47
2017-10-16T21:03:35.790Z,8.30
2017-10-16T21:07:39.275Z,7.93
2017-10-16T21:11:42.717Z,6.13
2017-10-16T21:15:46.950Z,7.53
2017-10-16T21:19:51.153Z,6.67
2017-10-16T21:23:54.629Z,6.30
2017-10-16T21:27:58.078Z,6.13
2017-10-16T21:32:01.565Z,6.93
2017-10-16T21:36:05.011Z,5.97
2017-10-16T21:40:09.439Z,7.97
2017-10-16T21:44:13.648Z,5.17
2017-10-16T21:48:17.138Z,6.60
2017-10-16T21:52:20.579Z,5.60
2017-10-16T21:56:24.974Z,6.20
2017-10-16T22:00:28.422Z,6.77
2017-10-16T22:04:31.913Z,7.00
2017-10-16T22:08:36.125Z,7.13
2017-10-16T22:12:39.612Z,7.23
2017-10-16T22:16:43.050Z,6.43
2017-10-16T22:20:47.296Z,7.53
2017-10-16T22:24:50.734Z,6.30
2017-10-16T22:28:54.225Z,8.13
2017-10-16T22:32:57.665Z,6.47
2017-10-16T22:37:01.136Z,6.70
2017-10-16T22:41:04.587Z,6.60
2017-10-16T22:45:08.072Z,6.17
2017-10-16T22:49:11.524Z,7.47
2017-10-16T22:53:15.809Z,7.80
2017-10-16T22:57:19.251Z,6.87
2017-10-16T23:01:22.727Z,5.90
2017-10-16T23:05:26.183Z,7.83
2017-10-16T23:09:30.414Z,7.73
2017-10-16T23:13:33.934Z,6.70
2017-10-16T23:17:37.415Z,6.17
2017-10-16T23:21:41.624Z,6.20
2017-10-16T23:25:45.099Z,6.23
2017-10-16T23:29:48.547Z,5.87
2017-10-16T23:33:52.023Z,6.47
2017-10-16T23:37:55.465Z,5.60
2017-10-16T23:41:59.713Z,8.00
2017-10-16T23:46:03.155Z,5.80
2017-10-16T23:50:06.623Z,5.40
2017-10-16T23:54:10.107Z,5.23
2017-10-16T23:58:13.584Z,5.30
